Dearborn, Missouri
Current Conditions -  °F | °C
As of 5:53 AM on Monday 20 Oct 2014 (Local Time) from KMCI Reporting Station
Clear Clear  
Wind Chill: 51°   Ceiling: Unl
Heat Index: 51°   Visibility: 10mi
Dew Point: 50°   Wind: 8mph
Humidity: 96%   Direction: 230°SW
Pressure: 29.98"   Gusts: NA
Location:  39.52°N, 94.77°W
Report Text: KMCI 201053Z 23007KT 10SM CLR 11/10 A2998 RMK AO2 SLP151 T01060100
Loading
Personal Weather Stations






























Interactive Weather Map
Tropical Storm Tracking
New forecast layout! Learn more

10-Day Weather Forecast

Advertisements
Track Severe Weather on mobile